sensor_id;sensor_type;location;lat;lon;timestamp;temperature;humidity
31369;DHT22;18004;48.416;10.066;2023-06-14T00:02:04;14.50;47.50
31369;DHT22;18004;48.416;10.066;2023-06-14T00:04:30;14.50;46.50
31369;DHT22;18004;48.416;10.066;2023-06-14T00:06:56;14.30;45.10
31369;DHT22;18004;48.416;10.066;2023-06-14T00:09:22;14.30;41.70
31369;DHT22;18004;48.416;10.066;2023-06-14T00:11:48;14.20;40.50
31369;DHT22;18004;48.416;10.066;2023-06-14T00:14:14;14.20;40.60
31369;DHT22;18004;48.416;10.066;2023-06-14T00:16:40;14.10;40.20
31369;DHT22;18004;48.416;10.066;2023-06-14T00:19:08;14.10;38.70
31369;DHT22;18004;48.416;10.066;2023-06-14T00:21:36;14.10;40.10
31369;DHT22;18004;48.416;10.066;2023-06-14T00:24:02;14.10;41.10
31369;DHT22;18004;48.416;10.066;2023-06-14T00:26:28;14.10;40.80
31369;DHT22;18004;48.416;10.066;2023-06-14T00:28:54;14.00;42.00
31369;DHT22;18004;48.416;10.066;2023-06-14T00:31:20;14.00;42.40
31369;DHT22;18004;48.416;10.066;2023-06-14T00:33:46;13.90;43.10
31369;DHT22;18004;48.416;10.066;2023-06-14T00:36:12;13.90;43.60
31369;DHT22;18004;48.416;10.066;2023-06-14T00:38:38;13.80;43.70
31369;DHT22;18004;48.416;10.066;2023-06-14T00:41:04;13.80;44.80
31369;DHT22;18004;48.416;10.066;2023-06-14T00:43:29;13.80;44.00
31369;DHT22;18004;48.416;10.066;2023-06-14T00:45:55;13.70;44.50
31369;DHT22;18004;48.416;10.066;2023-06-14T00:48:21;13.70;45.50
31369;DHT22;18004;48.416;10.066;2023-06-14T00:50:49;13.70;44.70
31369;DHT22;18004;48.416;10.066;2023-06-14T00:53:16;13.60;44.40
31369;DHT22;18004;48.416;10.066;2023-06-14T00:55:46;13.60;47.70
31369;DHT22;18004;48.416;10.066;2023-06-14T00:58:12;13.50;46.20
31369;DHT22;18004;48.416;10.066;2023-06-14T01:00:39;13.50;49.90
31369;DHT22;18004;48.416;10.066;2023-06-14T01:03:04;13.40;51.90
31369;DHT22;18004;48.416;10.066;2023-06-14T01:05:30;13.30;56.10
31369;DHT22;18004;48.416;10.066;2023-06-14T01:10:47;13.30;53.20
31369;DHT22;18004;48.416;10.066;2023-06-14T01:13:22;13.30;53.10
31369;DHT22;18004;48.416;10.066;2023-06-14T01:15:50;13.30;54.00
31369;DHT22;18004;48.416;10.066;2023-06-14T01:18:17;13.30;52.50
31369;DHT22;18004;48.416;10.066;2023-06-14T01:20:44;13.30;53.70
31369;DHT22;18004;48.416;10.066;2023-06-14T01:23:11;13.30;53.60
31369;DHT22;18004;48.416;10.066;2023-06-14T01:25:39;13.20;55.80
31369;DHT22;18004;48.416;10.066;2023-06-14T01:28:09;13.20;55.70
31369;DHT22;18004;48.416;10.066;2023-06-14T01:30:40;13.10;60.60
31369;DHT22;18004;48.416;10.066;2023-06-14T01:33:15;13.00;60.10
31369;DHT22;18004;48.416;10.066;2023-06-14T01:35:43;13.00;59.40
31369;DHT22;18004;48.416;10.066;2023-06-14T01:38:10;12.90;61.50
31369;DHT22;18004;48.416;10.066;2023-06-14T01:40:36;12.90;61.80
31369;DHT22;18004;48.416;10.066;2023-06-14T01:43:03;12.70;66.10
31369;DHT22;18004;48.416;10.066;2023-06-14T01:45:30;12.60;67.90
31369;DHT22;18004;48.416;10.066;2023-06-14T01:47:57;12.50;66.90
31369;DHT22;18004;48.416;10.066;2023-06-14T01:50:22;12.50;72.20
31369;DHT22;18004;48.416;10.066;2023-06-14T01:52:48;12.50;73.90
31369;DHT22;18004;48.416;10.066;2023-06-14T01:55:14;12.50;75.10
31369;DHT22;18004;48.416;10.066;2023-06-14T01:57:43;12.50;76.20
31369;DHT22;18004;48.416;10.066;2023-06-14T02:00:09;12.50;72.10
31369;DHT22;18004;48.416;10.066;2023-06-14T02:02:38;12.60;77.00
31369;DHT22;18004;48.416;10.066;2023-06-14T02:05:04;12.50;81.80
31369;DHT22;18004;48.416;10.066;2023-06-14T02:07:30;12.50;83.40
31369;DHT22;18004;48.416;10.066;2023-06-14T02:09:56;12.40;84.30
31369;DHT22;18004;48.416;10.066;2023-06-14T02:12:21;12.40;85.90
31369;DHT22;18004;48.416;10.066;2023-06-14T02:14:47;12.40;85.90
31369;DHT22;18004;48.416;10.066;2023-06-14T02:17:14;12.40;86.10
31369;DHT22;18004;48.416;10.066;2023-06-14T02:19:40;12.30;84.50
31369;DHT22;18004;48.416;10.066;2023-06-14T02:22:06;12.30;84.80
31369;DHT22;18004;48.416;10.066;2023-06-14T02:24:32;12.30;84.30
31369;DHT22;18004;48.416;10.066;2023-06-14T02:26:58;12.30;85.00
31369;DHT22;18004;48.416;10.066;2023-06-14T02:29:23;12.30;84.00
31369;DHT22;18004;48.416;10.066;2023-06-14T02:31:49;12.30;80.30
31369;DHT22;18004;48.416;10.066;2023-06-14T02:34:15;12.30;79.90
31369;DHT22;18004;48.416;10.066;2023-06-14T02:36:43;12.30;79.90
31369;DHT22;18004;48.416;10.066;2023-06-14T02:39:09;12.30;79.70
31369;DHT22;18004;48.416;10.066;2023-06-14T02:41:36;12.30;79.20
31369;DHT22;18004;48.416;10.066;2023-06-14T02:44:02;12.30;79.40
31369;DHT22;18004;48.416;10.066;2023-06-14T02:46:28;12.30;79.00
31369;DHT22;18004;48.416;10.066;2023-06-14T02:48:54;12.30;78.80
31369;DHT22;18004;48.416;10.066;2023-06-14T02:51:19;12.20;79.80
31369;DHT22;18004;48.416;10.066;2023-06-14T02:53:45;12.10;79.70
31369;DHT22;18004;48.416;10.066;2023-06-14T02:56:11;12.00;79.70
31369;DHT22;18004;48.416;10.066;2023-06-14T02:58:37;11.90;79.60
31369;DHT22;18004;48.416;10.066;2023-06-14T03:01:05;11.90;79.60
31369;DHT22;18004;48.416;10.066;2023-06-14T03:03:33;11.90;78.10
31369;DHT22;18004;48.416;10.066;2023-06-14T03:05:59;11.90;77.30
31369;DHT22;18004;48.416;10.066;2023-06-14T03:08:30;11.90;77.80
31369;DHT22;18004;48.416;10.066;2023-06-14T03:10:57;11.90;78.70
31369;DHT22;18004;48.416;10.066;2023-06-14T03:13:23;11.90;78.50
31369;DHT22;18004;48.416;10.066;2023-06-14T03:15:49;11.90;80.50
31369;DHT22;18004;48.416;10.066;2023-06-14T03:18:17;11.80;84.00
31369;DHT22;18004;48.416;10.066;2023-06-14T03:20:44;11.80;84.60
31369;DHT22;18004;48.416;10.066;2023-06-14T03:23:11;11.80;83.80
31369;DHT22;18004;48.416;10.066;2023-06-14T03:25:37;11.80;84.60
31369;DHT22;18004;48.416;10.066;2023-06-14T03:28:04;11.80;84.50
31369;DHT22;18004;48.416;10.066;2023-06-14T03:30:31;11.70;84.00
31369;DHT22;18004;48.416;10.066;2023-06-14T03:32:57;11.80;87.50
31369;DHT22;18004;48.416;10.066;2023-06-14T03:35:23;11.80;87.20
31369;DHT22;18004;48.416;10.066;2023-06-14T03:37:49;11.70;85.90
31369;DHT22;18004;48.416;10.066;2023-06-14T03:40:17;11.60;84.50
31369;DHT22;18004;48.416;10.066;2023-06-14T03:42:43;11.60;85.20
31369;DHT22;18004;48.416;10.066;2023-06-14T03:45:09;11.60;85.00
31369;DHT22;18004;48.416;10.066;2023-06-14T03:47:35;11.50;85.20
31369;DHT22;18004;48.416;10.066;2023-06-14T03:50:02;11.50;83.00
31369;DHT22;18004;48.416;10.066;2023-06-14T03:52:28;11.50;83.70
31369;DHT22;18004;48.416;10.066;2023-06-14T03:54:54;11.40;85.20
31369;DHT22;18004;48.416;10.066;2023-06-14T03:57:19;11.40;85.00
31369;DHT22;18004;48.416;10.066;2023-06-14T03:59:48;11.40;89.10
31369;DHT22;18004;48.416;10.066;2023-06-14T04:02:13;11.40;90.40
31369;DHT22;18004;48.416;10.066;2023-06-14T04:04:43;11.50;90.60
31369;DHT22;18004;48.416;10.066;2023-06-14T04:07:14;11.50;90.20
31369;DHT22;18004;48.416;10.066;2023-06-14T04:09:41;11.50;90.50
31369;DHT22;18004;48.416;10.066;2023-06-14T04:12:07;11.60;90.90
31369;DHT22;18004;48.416;10.066;2023-06-14T04:14:40;11.60;91.30
31369;DHT22;18004;48.416;10.066;2023-06-14T04:17:06;11.60;90.60
31369;DHT22;18004;48.416;10.066;2023-06-14T04:19:32;11.70;91.40
31369;DHT22;18004;48.416;10.066;2023-06-14T04:21:59;11.80;90.70
31369;DHT22;18004;48.416;10.066;2023-06-14T04:24:26;11.80;90.70
31369;DHT22;18004;48.416;10.066;2023-06-14T04:26:54;11.90;92.10
31369;DHT22;18004;48.416;10.066;2023-06-14T04:29:20;11.90;91.40
31369;DHT22;18004;48.416;10.066;2023-06-14T04:31:46;11.90;91.80
31369;DHT22;18004;48.416;10.066;2023-06-14T04:34:12;11.90;91.30
31369;DHT22;18004;48.416;10.066;2023-06-14T04:36:42;12.00;90.80
31369;DHT22;18004;48.416;10.066;2023-06-14T04:39:20;12.00;91.30
31369;DHT22;18004;48.416;10.066;2023-06-14T04:41:47;12.10;91.70
31369;DHT22;18004;48.416;10.066;2023-06-14T04:44:13;12.10;92.60
31369;DHT22;18004;48.416;10.066;2023-06-14T04:46:39;12.20;92.40
31369;DHT22;18004;48.416;10.066;2023-06-14T04:49:17;12.20;92.80
31369;DHT22;18004;48.416;10.066;2023-06-14T04:51:44;12.20;94.50
31369;DHT22;18004;48.416;10.066;2023-06-14T04:54:11;12.30;93.90
31369;DHT22;18004;48.416;10.066;2023-06-14T04:56:43;12.30;93.70
31369;DHT22;18004;48.416;10.066;2023-06-14T04:59:10;12.40;93.30
31369;DHT22;18004;48.416;10.066;2023-06-14T05:01:41;12.50;93.10
31369;DHT22;18004;48.416;10.066;2023-06-14T05:04:06;12.60;93.30
31369;DHT22;18004;48.416;10.066;2023-06-14T05:06:32;12.60;92.50
31369;DHT22;18004;48.416;10.066;2023-06-14T05:08:58;12.70;92.20
31369;DHT22;18004;48.416;10.066;2023-06-14T05:11:24;12.80;92.10
31369;DHT22;18004;48.416;10.066;2023-06-14T05:13:50;12.90;77.60
31369;DHT22;18004;48.416;10.066;2023-06-14T05:16:16;13.20;67.70
31369;DHT22;18004;48.416;10.066;2023-06-14T05:18:45;13.40;62.20
31369;DHT22;18004;48.416;10.066;2023-06-14T05:21:13;13.50;57.30
31369;DHT22;18004;48.416;10.066;2023-06-14T05:23:38;13.60;57.40
31369;DHT22;18004;48.416;10.066;2023-06-14T05:26:04;13.80;46.80
31369;DHT22;18004;48.416;10.066;2023-06-14T05:28:32;14.00;44.10
31369;DHT22;18004;48.416;10.066;2023-06-14T05:30:57;14.00;40.20
31369;DHT22;18004;48.416;10.066;2023-06-14T05:33:24;14.10;34.40
31369;DHT22;18004;48.416;10.066;2023-06-14T05:35:49;14.20;34.30
31369;DHT22;18004;48.416;10.066;2023-06-14T05:38:15;14.30;36.80
31369;DHT22;18004;48.416;10.066;2023-06-14T05:40:41;14.40;34.20
31369;DHT22;18004;48.416;10.066;2023-06-14T05:43:07;14.40;28.40
31369;DHT22;18004;48.416;10.066;2023-06-14T05:45:32;14.40;26.80
31369;DHT22;18004;48.416;10.066;2023-06-14T05:47:58;14.50;24.60
31369;DHT22;18004;48.416;10.066;2023-06-14T05:50:24;14.50;26.60
31369;DHT22;18004;48.416;10.066;2023-06-14T05:52:50;14.50;26.90
31369;DHT22;18004;48.416;10.066;2023-06-14T05:55:17;14.60;27.50
31369;DHT22;18004;48.416;10.066;2023-06-14T05:57:42;14.60;25.50
31369;DHT22;18004;48.416;10.066;2023-06-14T06:00:09;14.50;24.90
31369;DHT22;18004;48.416;10.066;2023-06-14T06:02:36;14.70;25.50
31369;DHT22;18004;48.416;10.066;2023-06-14T06:05:02;14.70;25.60
31369;DHT22;18004;48.416;10.066;2023-06-14T06:07:28;14.70;25.50
31369;DHT22;18004;48.416;10.066;2023-06-14T06:09:54;14.70;24.90
31369;DHT22;18004;48.416;10.066;2023-06-14T06:12:20;14.70;24.90
31369;DHT22;18004;48.416;10.066;2023-06-14T06:14:45;14.90;26.40
31369;DHT22;18004;48.416;10.066;2023-06-14T06:17:11;15.00;25.70
31369;DHT22;18004;48.416;10.066;2023-06-14T06:19:37;15.10;24.30
31369;DHT22;18004;48.416;10.066;2023-06-14T06:22:03;15.10;23.60
31369;DHT22;18004;48.416;10.066;2023-06-14T06:24:31;15.20;22.40
31369;DHT22;18004;48.416;10.066;2023-06-14T06:26:57;15.20;23.70
31369;DHT22;18004;48.416;10.066;2023-06-14T06:29:23;15.30;23.10
31369;DHT22;18004;48.416;10.066;2023-06-14T06:31:49;15.50;24.90
31369;DHT22;18004;48.416;10.066;2023-06-14T06:34:15;15.60;22.80
31369;DHT22;18004;48.416;10.066;2023-06-14T06:36:40;15.60;22.30
31369;DHT22;18004;48.416;10.066;2023-06-14T06:39:07;15.50;22.60
31369;DHT22;18004;48.416;10.066;2023-06-14T06:41:39;15.60;22.00
31369;DHT22;18004;48.416;10.066;2023-06-14T06:44:06;15.60;21.40
31369;DHT22;18004;48.416;10.066;2023-06-14T06:46:32;15.70;21.40
31369;DHT22;18004;48.416;10.066;2023-06-14T06:48:59;15.70;23.10
31369;DHT22;18004;48.416;10.066;2023-06-14T06:51:25;15.80;24.30
31369;DHT22;18004;48.416;10.066;2023-06-14T06:53:54;15.90;23.40
31369;DHT22;18004;48.416;10.066;2023-06-14T06:56:20;16.00;23.10
31369;DHT22;18004;48.416;10.066;2023-06-14T06:58:52;16.00;23.50
31369;DHT22;18004;48.416;10.066;2023-06-14T07:01:18;16.10;24.90
31369;DHT22;18004;48.416;10.066;2023-06-14T07:03:46;16.20;25.70
31369;DHT22;18004;48.416;10.066;2023-06-14T07:06:12;16.30;24.80
31369;DHT22;18004;48.416;10.066;2023-06-14T07:08:38;16.50;22.70
31369;DHT22;18004;48.416;10.066;2023-06-14T07:11:05;16.50;24.00
31369;DHT22;18004;48.416;10.066;2023-06-14T07:13:31;16.50;24.10
31369;DHT22;18004;48.416;10.066;2023-06-14T07:15:58;16.50;23.80
31369;DHT22;18004;48.416;10.066;2023-06-14T07:18:26;16.70;20.90
31369;DHT22;18004;48.416;10.066;2023-06-14T07:20:52;16.70;21.60
31369;DHT22;18004;48.416;10.066;2023-06-14T07:23:20;17.00;19.80
31369;DHT22;18004;48.416;10.066;2023-06-14T07:25:46;17.00;20.30
31369;DHT22;18004;48.416;10.066;2023-06-14T07:28:12;17.10;20.20
31369;DHT22;18004;48.416;10.066;2023-06-14T07:30:38;17.20;19.90
31369;DHT22;18004;48.416;10.066;2023-06-14T07:33:03;17.40;17.60
31369;DHT22;18004;48.416;10.066;2023-06-14T07:35:29;17.50;16.00
31369;DHT22;18004;48.416;10.066;2023-06-14T07:37:55;17.70;14.90
31369;DHT22;18004;48.416;10.066;2023-06-14T07:40:21;17.90;14.70
31369;DHT22;18004;48.416;10.066;2023-06-14T07:42:47;17.80;14.60
31369;DHT22;18004;48.416;10.066;2023-06-14T07:45:15;18.10;14.70
31369;DHT22;18004;48.416;10.066;2023-06-14T07:47:41;18.30;13.40
31369;DHT22;18004;48.416;10.066;2023-06-14T07:50:07;18.30;12.80
31369;DHT22;18004;48.416;10.066;2023-06-14T07:52:33;18.40;13.80
31369;DHT22;18004;48.416;10.066;2023-06-14T07:54:59;18.40;15.00
31369;DHT22;18004;48.416;10.066;2023-06-14T07:57:25;18.70;13.50
31369;DHT22;18004;48.416;10.066;2023-06-14T07:59:52;18.90;9.30
31369;DHT22;18004;48.416;10.066;2023-06-14T08:02:18;18.80;9.80
31369;DHT22;18004;48.416;10.066;2023-06-14T08:04:43;18.90;10.00
31369;DHT22;18004;48.416;10.066;2023-06-14T08:07:09;19.00;10.50
31369;DHT22;18004;48.416;10.066;2023-06-14T08:09:35;19.40;8.10
31369;DHT22;18004;48.416;10.066;2023-06-14T08:12:05;19.40;6.30
31369;DHT22;18004;48.416;10.066;2023-06-14T08:14:35;19.40;5.30
31369;DHT22;18004;48.416;10.066;2023-06-14T08:17:01;19.50;7.20
31369;DHT22;18004;48.416;10.066;2023-06-14T08:19:27;20.00;4.90
31369;DHT22;18004;48.416;10.066;2023-06-14T08:21:53;20.10;4.30
31369;DHT22;18004;48.416;10.066;2023-06-14T08:24:23;19.90;3.80
31369;DHT22;18004;48.416;10.066;2023-06-14T08:26:55;20.00;2.90
31369;DHT22;18004;48.416;10.066;2023-06-14T08:29:26;20.10;2.30
31369;DHT22;18004;48.416;10.066;2023-06-14T08:31:54;20.10;2.40
31369;DHT22;18004;48.416;10.066;2023-06-14T08:34:20;20.20;1.30
31369;DHT22;18004;48.416;10.066;2023-06-14T08:36:46;20.60;1.00
31369;DHT22;18004;48.416;10.066;2023-06-14T08:39:12;20.70;1.00
31369;DHT22;18004;48.416;10.066;2023-06-14T08:41:44;21.00;1.00
31369;DHT22;18004;48.416;10.066;2023-06-14T08:44:11;21.00;1.00
31369;DHT22;18004;48.416;10.066;2023-06-14T08:46:37;21.00;1.00
31369;DHT22;18004;48.416;10.066;2023-06-14T08:49:04;21.00;1.00
31369;DHT22;18004;48.416;10.066;2023-06-14T08:51:35;21.00;1.00
31369;DHT22;18004;48.416;10.066;2023-06-14T08:54:08;21.20;1.00
31369;DHT22;18004;48.416;10.066;2023-06-14T08:56:37;21.80;1.00
31369;DHT22;18004;48.416;10.066;2023-06-14T09:01:57;21.70;1.00
31369;DHT22;18004;48.416;10.066;2023-06-14T09:04:23;22.00;1.00
31369;DHT22;18004;48.416;10.066;2023-06-14T09:06:56;22.00;1.00
31369;DHT22;18004;48.416;10.066;2023-06-14T09:09:25;22.20;1.00
31369;DHT22;18004;48.416;10.066;2023-06-14T09:12:40;22.10;1.00
31369;DHT22;18004;48.416;10.066;2023-06-14T09:18:40;22.10;1.00
31369;DHT22;18004;48.416;10.066;2023-06-14T09:23:47;22.40;1.00
31369;DHT22;18004;48.416;10.066;2023-06-14T09:29:52;22.50;1.00
31369;DHT22;18004;48.416;10.066;2023-06-14T09:32:45;22.00;1.00
31369;DHT22;18004;48.416;10.066;2023-06-14T09:35:24;22.40;1.00
31369;DHT22;18004;48.416;10.066;2023-06-14T09:38:03;23.00;1.00
31369;DHT22;18004;48.416;10.066;2023-06-14T09:40:42;23.00;1.00
31369;DHT22;18004;48.416;10.066;2023-06-14T09:43:36;22.50;1.00
31369;DHT22;18004;48.416;10.066;2023-06-14T09:49:57;22.40;1.00
31369;DHT22;18004;48.416;10.066;2023-06-14T09:52:33;23.00;1.00
31369;DHT22;18004;48.416;10.066;2023-06-14T09:55:14;23.00;1.00
31369;DHT22;18004;48.416;10.066;2023-06-14T09:57:45;23.00;1.00
31369;DHT22;18004;48.416;10.066;2023-06-14T10:00:14;23.00;1.00
31369;DHT22;18004;48.416;10.066;2023-06-14T10:02:49;22.90;1.00
31369;DHT22;18004;48.416;10.066;2023-06-14T10:08:46;22.70;1.00
31369;DHT22;18004;48.416;10.066;2023-06-14T10:11:13;23.10;1.00
31369;DHT22;18004;48.416;10.066;2023-06-14T10:13:39;23.30;1.00
31369;DHT22;18004;48.416;10.066;2023-06-14T10:16:34;23.00;1.00
31369;DHT22;18004;48.416;10.066;2023-06-14T10:31:12;24.20;1.00
31369;DHT22;18004;48.416;10.066;2023-06-14T10:33:57;23.60;1.00
31369;DHT22;18004;48.416;10.066;2023-06-14T10:36:30;23.90;1.00
31369;DHT22;18004;48.416;10.066;2023-06-14T10:46:40;23.90;1.00
31369;DHT22;18004;48.416;10.066;2023-06-14T11:03:51;25.00;1.00
31369;DHT22;18004;48.416;10.066;2023-06-14T11:06:22;24.30;1.00
31369;DHT22;18004;48.416;10.066;2023-06-14T11:09:39;24.00;1.00
31369;DHT22;18004;48.416;10.066;2023-06-14T11:11:54;24.20;1.00
31369;DHT22;18004;48.416;10.066;2023-06-14T11:14:33;23.90;1.00
31369;DHT22;18004;48.416;10.066;2023-06-14T11:16:59;23.70;1.00
31369;DHT22;18004;48.416;10.066;2023-06-14T11:19:26;23.70;1.00
31369;DHT22;18004;48.416;10.066;2023-06-14T11:32:47;25.60;1.00
31369;DHT22;18004;48.416;10.066;2023-06-14T11:43:15;25.90;1.00
31369;DHT22;18004;48.416;10.066;2023-06-14T11:46:00;24.80;1.00
31369;DHT22;18004;48.416;10.066;2023-06-14T11:48:43;24.40;1.00
31369;DHT22;18004;48.416;10.066;2023-06-14T11:51:49;24.60;1.00
31369;DHT22;18004;48.416;10.066;2023-06-14T12:12:56;25.80;1.00
31369;DHT22;18004;48.416;10.066;2023-06-14T12:55:51;25.90;1.00
31369;DHT22;18004;48.416;10.066;2023-06-14T14:08:55;26.60;1.00
31369;DHT22;18004;48.416;10.066;2023-06-14T14:52:19;26.20;1.00
31369;DHT22;18004;48.416;10.066;2023-06-14T14:54:47;25.70;1.00
31369;DHT22;18004;48.416;10.066;2023-06-14T14:57:22;25.70;1.00
31369;DHT22;18004;48.416;10.066;2023-06-14T14:59:48;25.60;1.00
31369;DHT22;18004;48.416;10.066;2023-06-14T15:02:14;25.00;1.00
31369;DHT22;18004;48.416;10.066;2023-06-14T15:04:40;24.80;1.00
31369;DHT22;18004;48.416;10.066;2023-06-14T15:07:05;24.80;1.00
31369;DHT22;18004;48.416;10.066;2023-06-14T15:09:37;24.70;1.00
31369;DHT22;18004;48.416;10.066;2023-06-14T15:15:46;24.70;1.00
31369;DHT22;18004;48.416;10.066;2023-06-14T15:33:54;25.50;1.00
31369;DHT22;18004;48.416;10.066;2023-06-14T15:36:57;25.30;1.00
31369;DHT22;18004;48.416;10.066;2023-06-14T15:39:49;25.10;1.00
31369;DHT22;18004;48.416;10.066;2023-06-14T15:42:41;24.80;1.00
31369;DHT22;18004;48.416;10.066;2023-06-14T15:45:53;24.80;1.00
31369;DHT22;18004;48.416;10.066;2023-06-14T15:48:44;24.50;1.00
31369;DHT22;18004;48.416;10.066;2023-06-14T15:54:09;24.40;1.00
31369;DHT22;18004;48.416;10.066;2023-06-14T15:57:03;24.40;1.00
31369;DHT22;18004;48.416;10.066;2023-06-14T16:03:12;24.60;1.00
31369;DHT22;18004;48.416;10.066;2023-06-14T16:05:41;24.60;1.00
31369;DHT22;18004;48.416;10.066;2023-06-14T16:08:07;24.40;1.00
31369;DHT22;18004;48.416;10.066;2023-06-14T16:10:33;24.30;1.00
31369;DHT22;18004;48.416;10.066;2023-06-14T16:12:58;24.10;1.00
31369;DHT22;18004;48.416;10.066;2023-06-14T16:15:36;24.00;1.00
31369;DHT22;18004;48.416;10.066;2023-06-14T16:19:00;24.10;1.00
31369;DHT22;18004;48.416;10.066;2023-06-14T16:22:05;24.20;1.00
31369;DHT22;18004;48.416;10.066;2023-06-14T16:24:34;24.10;1.00
31369;DHT22;18004;48.416;10.066;2023-06-14T16:30:39;24.10;1.00
31369;DHT22;18004;48.416;10.066;2023-06-14T16:39:53;24.10;1.00
31369;DHT22;18004;48.416;10.066;2023-06-14T16:45:37;24.00;1.00
31369;DHT22;18004;48.416;10.066;2023-06-14T16:48:11;23.80;1.00
31369;DHT22;18004;48.416;10.066;2023-06-14T16:50:37;23.70;1.00
31369;DHT22;18004;48.416;10.066;2023-06-14T16:53:05;23.60;1.00
31369;DHT22;18004;48.416;10.066;2023-06-14T16:56:43;23.50;1.00
31369;DHT22;18004;48.416;10.066;2023-06-14T17:10:28;24.10;1.00
31369;DHT22;18004;48.416;10.066;2023-06-14T17:13:12;23.90;1.00
31369;DHT22;18004;48.416;10.066;2023-06-14T17:15:41;23.60;1.00
31369;DHT22;18004;48.416;10.066;2023-06-14T17:18:10;23.60;1.00
31369;DHT22;18004;48.416;10.066;2023-06-14T17:20:37;23.50;1.00
31369;DHT22;18004;48.416;10.066;2023-06-14T17:23:03;23.30;1.00
31369;DHT22;18004;48.416;10.066;2023-06-14T17:25:29;23.30;1.00
31369;DHT22;18004;48.416;10.066;2023-06-14T17:27:57;23.20;1.00
31369;DHT22;18004;48.416;10.066;2023-06-14T17:30:23;23.00;1.00
31369;DHT22;18004;48.416;10.066;2023-06-14T17:32:52;22.90;1.00
31369;DHT22;18004;48.416;10.066;2023-06-14T17:35:41;22.70;1.00
31369;DHT22;18004;48.416;10.066;2023-06-14T17:48:33;22.40;1.00
31369;DHT22;18004;48.416;10.066;2023-06-14T17:51:03;22.30;1.00
31369;DHT22;18004;48.416;10.066;2023-06-14T17:53:29;22.30;1.00
31369;DHT22;18004;48.416;10.066;2023-06-14T17:55:56;22.40;1.00
31369;DHT22;18004;48.416;10.066;2023-06-14T17:58:28;22.40;1.00
31369;DHT22;18004;48.416;10.066;2023-06-14T18:01:33;22.20;1.00
31369;DHT22;18004;48.416;10.066;2023-06-14T18:03:59;22.20;1.00
31369;DHT22;18004;48.416;10.066;2023-06-14T18:06:31;22.20;1.00
31369;DHT22;18004;48.416;10.066;2023-06-14T18:09:11;22.20;1.00
31369;DHT22;18004;48.416;10.066;2023-06-14T18:12:08;22.00;1.00
31369;DHT22;18004;48.416;10.066;2023-06-14T18:14:34;22.00;1.00
31369;DHT22;18004;48.416;10.066;2023-06-14T18:17:07;21.90;1.00
31369;DHT22;18004;48.416;10.066;2023-06-14T18:19:33;21.80;1.00
31369;DHT22;18004;48.416;10.066;2023-06-14T18:22:00;21.80;1.00
31369;DHT22;18004;48.416;10.066;2023-06-14T18:24:38;21.70;1.00
31369;DHT22;18004;48.416;10.066;2023-06-14T18:27:07;21.70;1.00
31369;DHT22;18004;48.416;10.066;2023-06-14T18:30:12;21.60;1.00
31369;DHT22;18004;48.416;10.066;2023-06-14T18:32:34;21.50;1.00
31369;DHT22;18004;48.416;10.066;2023-06-14T18:35:04;21.50;1.00
31369;DHT22;18004;48.416;10.066;2023-06-14T18:37:33;21.50;1.00
31369;DHT22;18004;48.416;10.066;2023-06-14T18:40:36;21.30;1.00
31369;DHT22;18004;48.416;10.066;2023-06-14T18:43:18;21.20;1.00
31369;DHT22;18004;48.416;10.066;2023-06-14T18:45:47;21.30;1.00
31369;DHT22;18004;48.416;10.066;2023-06-14T18:48:36;21.10;1.00
31369;DHT22;18004;48.416;10.066;2023-06-14T18:51:05;21.00;1.00
31369;DHT22;18004;48.416;10.066;2023-06-14T18:53:31;21.00;1.00
31369;DHT22;18004;48.416;10.066;2023-06-14T18:55:56;21.00;1.00
31369;DHT22;18004;48.416;10.066;2023-06-14T18:58:33;20.90;1.00
31369;DHT22;18004;48.416;10.066;2023-06-14T19:00:59;20.80;1.00
31369;DHT22;18004;48.416;10.066;2023-06-14T19:06:45;20.70;1.00
31369;DHT22;18004;48.416;10.066;2023-06-14T19:09:20;20.70;1.00
31369;DHT22;18004;48.416;10.066;2023-06-14T19:11:50;20.60;1.00
31369;DHT22;18004;48.416;10.066;2023-06-14T19:14:16;20.60;1.00
31369;DHT22;18004;48.416;10.066;2023-06-14T19:16:45;20.60;1.00
31369;DHT22;18004;48.416;10.066;2023-06-14T19:19:30;20.30;1.00
31369;DHT22;18004;48.416;10.066;2023-06-14T19:29:12;20.10;1.00
31369;DHT22;18004;48.416;10.066;2023-06-14T19:31:39;20.00;1.40
31369;DHT22;18004;48.416;10.066;2023-06-14T19:34:04;20.00;1.90
31369;DHT22;18004;48.416;10.066;2023-06-14T19:36:36;19.90;2.40
31369;DHT22;18004;48.416;10.066;2023-06-14T19:39:33;19.80;3.10
31369;DHT22;18004;48.416;10.066;2023-06-14T19:42:49;19.70;3.30
31369;DHT22;18004;48.416;10.066;2023-06-14T19:45:21;19.80;4.10
31369;DHT22;18004;48.416;10.066;2023-06-14T19:48:25;19.60;4.70
31369;DHT22;18004;48.416;10.066;2023-06-14T19:50:51;19.50;5.20
31369;DHT22;18004;48.416;10.066;2023-06-14T20:12:12;19.00;9.60
31369;DHT22;18004;48.416;10.066;2023-06-14T20:14:38;18.90;10.10
31369;DHT22;18004;48.416;10.066;2023-06-14T20:17:12;18.80;10.60
31369;DHT22;18004;48.416;10.066;2023-06-14T20:23:42;18.60;12.10
31369;DHT22;18004;48.416;10.066;2023-06-14T20:26:49;18.50;13.30
31369;DHT22;18004;48.416;10.066;2023-06-14T20:29:15;18.50;14.60
31369;DHT22;18004;48.416;10.066;2023-06-14T20:35:31;18.40;15.80
31369;DHT22;18004;48.416;10.066;2023-06-14T20:38:01;18.40;15.00
31369;DHT22;18004;48.416;10.066;2023-06-14T20:40:53;18.50;15.80
31369;DHT22;18004;48.416;10.066;2023-06-14T20:43:25;18.30;17.00
31369;DHT22;18004;48.416;10.066;2023-06-14T20:46:08;18.30;17.70
31369;DHT22;18004;48.416;10.066;2023-06-14T20:49:08;18.30;17.80
31369;DHT22;18004;48.416;10.066;2023-06-14T20:55:12;18.20;19.80
31369;DHT22;18004;48.416;10.066;2023-06-14T20:57:41;18.10;20.30
31369;DHT22;18004;48.416;10.066;2023-06-14T21:00:10;18.10;20.90
31369;DHT22;18004;48.416;10.066;2023-06-14T21:02:39;18.10;19.20
31369;DHT22;18004;48.416;10.066;2023-06-14T21:05:06;18.00;18.60
31369;DHT22;18004;48.416;10.066;2023-06-14T21:07:33;18.00;18.90
31369;DHT22;18004;48.416;10.066;2023-06-14T21:09:59;18.00;18.60
31369;DHT22;18004;48.416;10.066;2023-06-14T21:12:25;17.90;18.40
31369;DHT22;18004;48.416;10.066;2023-06-14T21:14:51;17.90;18.60
31369;DHT22;18004;48.416;10.066;2023-06-14T21:17:17;17.80;19.10
31369;DHT22;18004;48.416;10.066;2023-06-14T21:24:25;17.80;18.90
31369;DHT22;18004;48.416;10.066;2023-06-14T21:27:25;17.80;19.00
31369;DHT22;18004;48.416;10.066;2023-06-14T21:29:51;17.80;19.10
31369;DHT22;18004;48.416;10.066;2023-06-14T21:35:41;17.70;20.10
31369;DHT22;18004;48.416;10.066;2023-06-14T21:38:24;17.70;19.60
31369;DHT22;18004;48.416;10.066;2023-06-14T21:40:50;17.60;19.80